Basra International Airport

ORMM · Basra, Irak

METAR-Geschichte ORMM · Basra International Airport

Unten siehst du die METARs der letzten paar Tage. Wähle ein Jahr, um ältere METARs ab dem Jahr 2007 zu durchsuchen.

28. Februar 2024

Uhrzeit Code Wetter Temp. Sichtweite Wolkendecke Wind METAR/SPECI
21:00
V
14 °C 10 km+ - 300° 300° 8 kt METAR ORMM 281800Z 30008KT CAVOK 14/02 Q1018 NOSIG
20:00
V
15 °C 10 km+ - 300° 300° 12 kt METAR ORMM 281700Z 30012KT CAVOK 15/01 Q1017 NOSIG
17:00
V
19 °C 10 km+ - 290° 290° 12 kt METAR ORMM 281400Z 29012KT CAVOK 19/00 Q1016 NOSIG
16:00
V
20 °C 10 km+ - 290° 290° 10 kt METAR ORMM 281300Z 29010KT CAVOK 20/00 Q1016 NOSIG
15:00
V
20 °C 10 km+ - 280° 280° 12 kt METAR ORMM 281200Z 28012KT CAVOK 20/00 Q1016 NOSIG
14:00
V
20 °C 10 km+ 4.000 ft 280° 280° 12 kt METAR ORMM 281100Z 28012KT 9999 SCT035 BKN040 20/M04 Q1016 NOSIG
13:00
V
22 °C 10 km+ 4.000 ft 280° 280° 10 kt METAR ORMM 281000Z 28010KT 9999 SCT035 BKN040 22/M02 Q1017 NOSIG
12:00
V
18 °C 10 km+ 4.000 ft 280° 280° 10 kt METAR ORMM 280900Z 28010KT 9999 SCT035 BKN040 18/M01 Q1018 NOSIG
11:00
V
17 °C 10 km+ 4.000 ft 280° 280° 10 kt METAR ORMM 280800Z 28010KT 9999 SCT035 BKN040 17/01 Q1018 NOSIG
10:00
V
15 °C 10 km+ 3.500 ft 280° 280° 8 kt METAR ORMM 280700Z 28008KT 9999 BKN035 15/02 Q1018 NOSIG
09:00
V
14 °C 10 km+ 3.500 ft 280° 280° 8 kt METAR ORMM 280600Z 28008KT 9999 BKN035 14/04 Q1018 NOSIG
08:00
V
11 °C 10 km+ - 280° 280° 7 kt METAR ORMM 280500Z 28007KT 9999 SCT035 11/05 Q1017 NOSIG
07:00
V
9 °C 10 km+ - 300° 300° 4 kt METAR ORMM 280400Z 30004KT 9999 FEW035 09/04 Q1016 NOSIG
06:00
V
12 °C 10 km+ - 200° 200° 4 kt METAR ORMM 280300Z 20004KT CAVOK 12/04 Q1016 NOSIG
03:00
V
13 °C 10 km+ - 320° 320° 5 kt METAR ORMM 280000Z 32005KT CAVOK 13/06 Q1016 NOSIG
01:00
V
13 °C 10 km+ - 350° 350° 5 kt METAR ORMM 272200Z 35005KT CAVOK 13/04 Q1015 NOSIG
00:00
V
14 °C 10 km+ - 360° 360° 4 kt METAR ORMM 272100Z 36004KT CAVOK 14/06 Q1015 NOSIG

27. Februar 2024

Uhrzeit Code Wetter Temp. Sichtweite Wolkendecke Wind METAR/SPECI
23:00
V
14 °C 10 km+ - 280° 280° 5 kt METAR ORMM 272000Z 28005KT CAVOK 14/06 Q1015 NOSIG
22:00
V
15 °C 10 km+ - 320° 320° 5 kt METAR ORMM 271900Z 32005KT CAVOK 15/05 Q1015 NOSIG
21:00
V
15 °C 10 km+ - 320° 320° 5 kt METAR ORMM 271800Z 32005KT CAVOK 15/06 Q1015 NOSIG
20:00
V
16 °C 10 km+ - 320° 320° 6 kt METAR ORMM 271700Z 32006KT CAVOK 16/05 Q1015 NOSIG
19:00
V
17 °C 10 km+ - 340° 340° 8 kt METAR ORMM 271600Z 34008KT CAVOK 17/02 Q1015 NOSIG
18:00
V
18 °C 10 km+ - 300° 300° 8 kt METAR ORMM 271500Z 30008KT CAVOK 18/M01 Q1015 NOSIG
17:00
V
19 °C 10 km+ - 300° 300° 6 kt METAR ORMM 271400Z 30006KT CAVOK 19/M02 Q1015 NOSIG
16:00
V
20 °C 10 km+ - 270° 270° 8 kt METAR ORMM 271300Z 27008KT CAVOK 20/M03 Q1015 NOSIG
15:00
V
20 °C 10 km+ - 270° 270° 10 kt METAR ORMM 271200Z 27010KT CAVOK 20/M01 Q1015 NOSIG
13:00
V
19 °C 10 km+ - 260° 260° 8 kt METAR ORMM 271000Z 26008KT CAVOK 19/M01 Q1016 NOSIG
11:00
V
16 °C 10 km+ - 290° 290° 4 kt METAR ORMM 270800Z 29004KT CAVOK 16/01 Q1018 NOSIG
09:00
V
12 °C 10 km+ - 310° 310° 6 kt METAR ORMM 270600Z 31006KT CAVOK 12/05 Q1017 NOSIG
08:00
V
9 °C 8 km - 210° 210° 4 kt METAR ORMM 270500Z 21004KT 8000 NSC 09/04 Q1017 NOSIG
07:00
V
8 °C 8 km - 270° 270° 6 kt METAR ORMM 270400Z 27006KT 8000 FEW030 SCT100 08/04 Q1016 NOSIG
06:00
V
8 °C 10 km+ - 280° 280° 4 kt METAR ORMM 270300Z 28004KT CAVOK 08/04 Q1016 NOSIG
05:00
V
8 °C 10 km+ - 280° 280° 6 kt METAR ORMM 270200Z 28006KT CAVOK 08/04 Q1015 NOSIG
04:00
V
9 °C 10 km+ - 280° 280° 6 kt METAR ORMM 270100Z 28006KT CAVOK 09/04 Q1015 NOSIG
03:00
V
9 °C 10 km+ - 290° 290° 6 kt METAR ORMM 270000Z 29006KT CAVOK 09/04 Q1015 NOSIG
02:00
V
10 °C 10 km+ - 290° 290° 8 kt METAR ORMM 262300Z 29008KT CAVOK 10/04 Q1015 NOSIG
01:00
V
10 °C 10 km+ - 280° 280° 4 kt METAR ORMM 262200Z 28004KT CAVOK 10/05 Q1015 NOSIG
00:00
V
11 °C 10 km+ - 280° 280° 4 kt METAR ORMM 262100Z 28004KT CAVOK 11/05 Q1014 NOSIG

26. Februar 2024

Uhrzeit Code Wetter Temp. Sichtweite Wolkendecke Wind METAR/SPECI
23:00
V
12 °C 10 km+ - 280° 280° 4 kt METAR ORMM 262000Z 28004KT CAVOK 12/05 Q1014 NOSIG
22:00
V
13 °C 10 km+ - 300° 300° 4 kt METAR ORMM 261900Z 30004KT CAVOK 13/05 Q1014 NOSIG
21:00
V
13 °C 10 km+ - 280° 280° 6 kt METAR ORMM 261800Z 28006KT CAVOK 13/06 Q1014 NOSIG
20:00
V
14 °C 10 km+ - 320° 320° 6 kt METAR ORMM 261700Z 32006KT CAVOK 14/07 Q1014 NOSIG
19:00
V
16 °C 10 km+ - 320° 320° 8 kt METAR ORMM 261600Z 32008KT CAVOK 16/06 Q1013 NOSIG
18:00
V
18 °C 10 km+ - 320° 320° 10 kt METAR ORMM 261500Z 32010KT CAVOK 18/04 Q1013 NOSIG
16:00
V
20 °C 10 km+ - 320° 320° 16 kt METAR ORMM 261300Z 32016KT CAVOK 20/M03 Q1012 NOSIG
15:00
V
21 °C 10 km+ - 300° 300° 18 kt METAR ORMM 261200Z 30018KT CAVOK 21/M02 Q1012 NOSIG
14:00
V
21 °C 10 km+ - 320° 320° 20 kt METAR ORMM 261100Z 32020KT CAVOK 21/M02 Q1012 NOSIG
11:00
V
18 °C 10 km+ - 320° 320° 12 kt METAR ORMM 260800Z 32012KT CAVOK 18/09 Q1013 NOSIG
10:00
V
16 °C 8 km - 300° 300° 12 kt METAR ORMM 260700Z 30012KT 8000 NSC 16/10 Q1013 NOSIG
09:00
V
14 °C 8 km - 280° 280° 12 kt METAR ORMM 260600Z 28012KT 8000 NSC 14/09 Q1013 NOSIG